sensor_id;sensor_type;location;lat;lon;timestamp;P1;durP1;ratioP1;P2;durP2;ratioP2
73699;SDS011;62005;50.082;8.988;2023-02-28T00:00:23;4.13;;;0.85;;
73699;SDS011;62005;50.082;8.988;2023-02-28T00:02:48;1.58;;;0.82;;
73699;SDS011;62005;50.082;8.988;2023-02-28T00:05:15;1.75;;;0.75;;
73699;SDS011;62005;50.082;8.988;2023-02-28T00:07:42;2.85;;;0.50;;
73699;SDS011;62005;50.082;8.988;2023-02-28T00:10:09;3.10;;;0.95;;
73699;SDS011;62005;50.082;8.988;2023-02-28T00:12:36;1.92;;;0.57;;
73699;SDS011;62005;50.082;8.988;2023-02-28T00:15:06;3.47;;;1.13;;
73699;SDS011;62005;50.082;8.988;2023-02-28T00:17:35;1.55;;;0.70;;
73699;SDS011;62005;50.082;8.988;2023-02-28T00:20:03;2.03;;;1.85;;
73699;SDS011;62005;50.082;8.988;2023-02-28T00:22:31;1.25;;;0.85;;
73699;SDS011;62005;50.082;8.988;2023-02-28T00:24:57;2.20;;;0.83;;
73699;SDS011;62005;50.082;8.988;2023-02-28T00:27:22;1.10;;;0.70;;
73699;SDS011;62005;50.082;8.988;2023-02-28T00:29:47;4.23;;;0.80;;
73699;SDS011;62005;50.082;8.988;2023-02-28T00:32:15;3.75;;;1.15;;
73699;SDS011;62005;50.082;8.988;2023-02-28T00:34:40;1.42;;;0.55;;
73699;SDS011;62005;50.082;8.988;2023-02-28T00:37:06;1.73;;;1.20;;
73699;SDS011;62005;50.082;8.988;2023-02-28T00:39:34;1.48;;;0.88;;
73699;SDS011;62005;50.082;8.988;2023-02-28T00:42:01;2.20;;;1.05;;
73699;SDS011;62005;50.082;8.988;2023-02-28T00:44:27;1.77;;;1.23;;
73699;SDS011;62005;50.082;8.988;2023-02-28T00:46:53;4.22;;;1.25;;
73699;SDS011;62005;50.082;8.988;2023-02-28T00:49:19;2.10;;;1.02;;
73699;SDS011;62005;50.082;8.988;2023-02-28T00:51:45;1.80;;;0.77;;
73699;SDS011;62005;50.082;8.988;2023-02-28T00:54:11;2.13;;;0.77;;
73699;SDS011;62005;50.082;8.988;2023-02-28T00:56:36;1.20;;;0.80;;
73699;SDS011;62005;50.082;8.988;2023-02-28T00:59:01;1.67;;;1.00;;
73699;SDS011;62005;50.082;8.988;2023-02-28T01:01:27;1.17;;;0.63;;
73699;SDS011;62005;50.082;8.988;2023-02-28T01:03:52;1.00;;;0.50;;
73699;SDS011;62005;50.082;8.988;2023-02-28T01:06:17;1.87;;;0.73;;
73699;SDS011;62005;50.082;8.988;2023-02-28T01:08:43;1.40;;;1.10;;
73699;SDS011;62005;50.082;8.988;2023-02-28T01:11:10;1.93;;;0.70;;
73699;SDS011;62005;50.082;8.988;2023-02-28T01:13:37;1.92;;;0.80;;
73699;SDS011;62005;50.082;8.988;2023-02-28T01:16:03;1.27;;;0.65;;
73699;SDS011;62005;50.082;8.988;2023-02-28T01:18:28;1.70;;;1.17;;
73699;SDS011;62005;50.082;8.988;2023-02-28T01:20:54;4.68;;;1.15;;
73699;SDS011;62005;50.082;8.988;2023-02-28T01:23:20;1.92;;;1.20;;
73699;SDS011;62005;50.082;8.988;2023-02-28T01:25:48;2.13;;;0.80;;
73699;SDS011;62005;50.082;8.988;2023-02-28T01:28:16;2.78;;;1.17;;
73699;SDS011;62005;50.082;8.988;2023-02-28T01:30:41;4.20;;;1.25;;
73699;SDS011;62005;50.082;8.988;2023-02-28T01:33:06;3.33;;;1.30;;
73699;SDS011;62005;50.082;8.988;2023-02-28T01:35:32;1.43;;;0.63;;
73699;SDS011;62005;50.082;8.988;2023-02-28T01:37:58;2.13;;;1.15;;
73699;SDS011;62005;50.082;8.988;2023-02-28T01:40:24;2.13;;;1.92;;
73699;SDS011;62005;50.082;8.988;2023-02-28T01:42:49;1.60;;;0.90;;
73699;SDS011;62005;50.082;8.988;2023-02-28T01:47:46;2.22;;;1.45;;
73699;SDS011;62005;50.082;8.988;2023-02-28T01:50:16;1.80;;;1.15;;
73699;SDS011;62005;50.082;8.988;2023-02-28T01:52:45;2.47;;;1.70;;
73699;SDS011;62005;50.082;8.988;2023-02-28T01:55:30;1.77;;;0.90;;
73699;SDS011;62005;50.082;8.988;2023-02-28T01:58:05;2.53;;;0.98;;
73699;SDS011;62005;50.082;8.988;2023-02-28T02:00:47;1.98;;;1.10;;
73699;SDS011;62005;50.082;8.988;2023-02-28T02:03:45;1.80;;;1.02;;
73699;SDS011;62005;50.082;8.988;2023-02-28T02:06:47;3.97;;;2.05;;
73699;SDS011;62005;50.082;8.988;2023-02-28T02:09:22;1.80;;;1.10;;
73699;SDS011;62005;50.082;8.988;2023-02-28T02:24:59;4.43;;;1.10;;
73699;SDS011;62005;50.082;8.988;2023-02-28T02:30:17;2.63;;;1.17;;
73699;SDS011;62005;50.082;8.988;2023-02-28T02:41:18;2.08;;;1.17;;
73699;SDS011;62005;50.082;8.988;2023-02-28T02:43:50;2.88;;;1.48;;
73699;SDS011;62005;50.082;8.988;2023-02-28T02:46:29;2.00;;;1.10;;
73699;SDS011;62005;50.082;8.988;2023-02-28T02:49:05;2.78;;;1.38;;
73699;SDS011;62005;50.082;8.988;2023-02-28T02:51:34;2.22;;;1.48;;
73699;SDS011;62005;50.082;8.988;2023-02-28T02:56:59;1.95;;;1.48;;
73699;SDS011;62005;50.082;8.988;2023-02-28T02:59:29;2.25;;;1.10;;
73699;SDS011;62005;50.082;8.988;2023-02-28T03:01:57;3.08;;;1.48;;
73699;SDS011;62005;50.082;8.988;2023-02-28T03:04:27;1.63;;;0.98;;
73699;SDS011;62005;50.082;8.988;2023-02-28T03:06:57;3.03;;;1.38;;
73699;SDS011;62005;50.082;8.988;2023-02-28T03:09:23;1.90;;;1.67;;
73699;SDS011;62005;50.082;8.988;2023-02-28T03:11:50;1.77;;;0.95;;
73699;SDS011;62005;50.082;8.988;2023-02-28T03:20:17;1.73;;;0.98;;
73699;SDS011;62005;50.082;8.988;2023-02-28T03:28:32;1.77;;;1.40;;
73699;SDS011;62005;50.082;8.988;2023-02-28T03:31:07;3.20;;;2.30;;
73699;SDS011;62005;50.082;8.988;2023-02-28T03:33:42;3.25;;;1.38;;
73699;SDS011;62005;50.082;8.988;2023-02-28T03:36:13;3.17;;;2.88;;
73699;SDS011;62005;50.082;8.988;2023-02-28T03:41:22;2.42;;;1.50;;
73699;SDS011;62005;50.082;8.988;2023-02-28T03:43:55;1.58;;;1.20;;
73699;SDS011;62005;50.082;8.988;2023-02-28T03:46:25;1.70;;;1.13;;
73699;SDS011;62005;50.082;8.988;2023-02-28T03:48:56;2.15;;;1.33;;
73699;SDS011;62005;50.082;8.988;2023-02-28T03:51:28;2.55;;;1.00;;
73699;SDS011;62005;50.082;8.988;2023-02-28T03:53:55;2.17;;;1.50;;
73699;SDS011;62005;50.082;8.988;2023-02-28T03:56:27;2.75;;;1.55;;
73699;SDS011;62005;50.082;8.988;2023-02-28T03:58:55;2.28;;;1.33;;
73699;SDS011;62005;50.082;8.988;2023-02-28T04:01:27;2.83;;;1.77;;
73699;SDS011;62005;50.082;8.988;2023-02-28T04:04:03;2.95;;;1.65;;
73699;SDS011;62005;50.082;8.988;2023-02-28T04:06:30;2.55;;;1.60;;
73699;SDS011;62005;50.082;8.988;2023-02-28T04:09:03;3.22;;;2.72;;
73699;SDS011;62005;50.082;8.988;2023-02-28T04:11:40;1.95;;;1.10;;
73699;SDS011;62005;50.082;8.988;2023-02-28T04:14:10;4.00;;;1.63;;
73699;SDS011;62005;50.082;8.988;2023-02-28T04:16:38;1.80;;;1.17;;
73699;SDS011;62005;50.082;8.988;2023-02-28T04:19:06;3.35;;;1.95;;
73699;SDS011;62005;50.082;8.988;2023-02-28T04:21:44;2.05;;;1.05;;
73699;SDS011;62005;50.082;8.988;2023-02-28T04:24:15;3.08;;;1.15;;
73699;SDS011;62005;50.082;8.988;2023-02-28T04:26:45;3.00;;;1.38;;
73699;SDS011;62005;50.082;8.988;2023-02-28T04:29:34;2.05;;;1.20;;
73699;SDS011;62005;50.082;8.988;2023-02-28T04:32:02;2.17;;;1.45;;
73699;SDS011;62005;50.082;8.988;2023-02-28T04:34:43;1.98;;;0.95;;
73699;SDS011;62005;50.082;8.988;2023-02-28T04:37:36;4.30;;;1.33;;
73699;SDS011;62005;50.082;8.988;2023-02-28T04:40:17;1.40;;;1.15;;
73699;SDS011;62005;50.082;8.988;2023-02-28T04:42:47;1.58;;;1.15;;
73699;SDS011;62005;50.082;8.988;2023-02-28T04:45:15;2.65;;;1.33;;
73699;SDS011;62005;50.082;8.988;2023-02-28T04:47:48;3.33;;;1.38;;
73699;SDS011;62005;50.082;8.988;2023-02-28T04:50:16;3.63;;;1.20;;
73699;SDS011;62005;50.082;8.988;2023-02-28T04:52:42;2.92;;;1.00;;
73699;SDS011;62005;50.082;8.988;2023-02-28T04:55:07;2.10;;;1.47;;
73699;SDS011;62005;50.082;8.988;2023-02-28T04:57:33;5.22;;;1.25;;
73699;SDS011;62005;50.082;8.988;2023-02-28T04:59:58;2.37;;;1.27;;
73699;SDS011;62005;50.082;8.988;2023-02-28T05:02:26;2.00;;;1.10;;
73699;SDS011;62005;50.082;8.988;2023-02-28T05:04:51;2.70;;;1.53;;
73699;SDS011;62005;50.082;8.988;2023-02-28T05:07:16;4.70;;;4.30;;
73699;SDS011;62005;50.082;8.988;2023-02-28T05:09:41;2.17;;;1.03;;
73699;SDS011;62005;50.082;8.988;2023-02-28T05:12:08;1.83;;;0.83;;
73699;SDS011;62005;50.082;8.988;2023-02-28T05:14:34;2.22;;;1.80;;
73699;SDS011;62005;50.082;8.988;2023-02-28T05:16:59;1.88;;;1.17;;
73699;SDS011;62005;50.082;8.988;2023-02-28T05:19:25;1.60;;;1.20;;
73699;SDS011;62005;50.082;8.988;2023-02-28T05:21:51;1.73;;;1.03;;
73699;SDS011;62005;50.082;8.988;2023-02-28T05:24:18;1.65;;;1.20;;
73699;SDS011;62005;50.082;8.988;2023-02-28T05:29:18;3.15;;;0.93;;
73699;SDS011;62005;50.082;8.988;2023-02-28T05:31:44;3.80;;;1.27;;
73699;SDS011;62005;50.082;8.988;2023-02-28T05:34:09;1.60;;;0.75;;
73699;SDS011;62005;50.082;8.988;2023-02-28T05:36:37;2.45;;;1.17;;
73699;SDS011;62005;50.082;8.988;2023-02-28T05:39:04;3.15;;;1.23;;
73699;SDS011;62005;50.082;8.988;2023-02-28T05:41:30;2.72;;;1.20;;
73699;SDS011;62005;50.082;8.988;2023-02-28T05:43:56;2.60;;;0.80;;
73699;SDS011;62005;50.082;8.988;2023-02-28T05:46:22;2.22;;;1.20;;
73699;SDS011;62005;50.082;8.988;2023-02-28T05:48:48;2.43;;;1.43;;
73699;SDS011;62005;50.082;8.988;2023-02-28T05:51:14;1.05;;;0.60;;
73699;SDS011;62005;50.082;8.988;2023-02-28T05:53:39;1.87;;;1.13;;
73699;SDS011;62005;50.082;8.988;2023-02-28T05:56:04;4.32;;;1.42;;
73699;SDS011;62005;50.082;8.988;2023-02-28T05:58:30;4.35;;;1.13;;
73699;SDS011;62005;50.082;8.988;2023-02-28T06:00:56;1.88;;;1.20;;
73699;SDS011;62005;50.082;8.988;2023-02-28T06:03:23;3.35;;;1.00;;
73699;SDS011;62005;50.082;8.988;2023-02-28T06:05:58;4.07;;;1.20;;
73699;SDS011;62005;50.082;8.988;2023-02-28T06:08:33;1.73;;;1.33;;
73699;SDS011;62005;50.082;8.988;2023-02-28T06:11:02;2.38;;;0.95;;
73699;SDS011;62005;50.082;8.988;2023-02-28T06:17:00;1.95;;;1.08;;
73699;SDS011;62005;50.082;8.988;2023-02-28T06:19:31;2.78;;;2.28;;
73699;SDS011;62005;50.082;8.988;2023-02-28T06:22:14;2.47;;;2.28;;
73699;SDS011;62005;50.082;8.988;2023-02-28T06:24:57;2.38;;;1.20;;
73699;SDS011;62005;50.082;8.988;2023-02-28T06:27:43;2.55;;;0.90;;
73699;SDS011;62005;50.082;8.988;2023-02-28T06:30:24;1.75;;;1.20;;
73699;SDS011;62005;50.082;8.988;2023-02-28T06:36:09;3.58;;;0.98;;
73699;SDS011;62005;50.082;8.988;2023-02-28T06:42:04;2.97;;;1.08;;
73699;SDS011;62005;50.082;8.988;2023-02-28T06:44:38;2.65;;;2.03;;
73699;SDS011;62005;50.082;8.988;2023-02-28T06:47:11;2.30;;;1.05;;
73699;SDS011;62005;50.082;8.988;2023-02-28T06:49:42;2.20;;;1.40;;
73699;SDS011;62005;50.082;8.988;2023-02-28T06:55:26;2.25;;;1.13;;
73699;SDS011;62005;50.082;8.988;2023-02-28T06:58:38;1.58;;;0.85;;
73699;SDS011;62005;50.082;8.988;2023-02-28T07:01:16;5.78;;;2.30;;
73699;SDS011;62005;50.082;8.988;2023-02-28T07:07:11;3.03;;;1.10;;
73699;SDS011;62005;50.082;8.988;2023-02-28T07:10:10;2.35;;;1.15;;
73699;SDS011;62005;50.082;8.988;2023-02-28T07:16:07;2.90;;;1.00;;
73699;SDS011;62005;50.082;8.988;2023-02-28T07:19:09;2.10;;;1.00;;
73699;SDS011;62005;50.082;8.988;2023-02-28T07:21:54;2.25;;;1.52;;
73699;SDS011;62005;50.082;8.988;2023-02-28T07:24:20;2.37;;;1.00;;
73699;SDS011;62005;50.082;8.988;2023-02-28T07:26:45;2.33;;;1.73;;
73699;SDS011;62005;50.082;8.988;2023-02-28T07:29:11;2.40;;;1.37;;
73699;SDS011;62005;50.082;8.988;2023-02-28T07:31:36;2.77;;;1.87;;
73699;SDS011;62005;50.082;8.988;2023-02-28T07:34:01;2.30;;;1.30;;
73699;SDS011;62005;50.082;8.988;2023-02-28T07:36:27;2.78;;;1.20;;
73699;SDS011;62005;50.082;8.988;2023-02-28T07:38:53;1.67;;;1.17;;
73699;SDS011;62005;50.082;8.988;2023-02-28T07:41:19;2.17;;;1.00;;
73699;SDS011;62005;50.082;8.988;2023-02-28T07:43:46;3.35;;;2.53;;
73699;SDS011;62005;50.082;8.988;2023-02-28T07:46:12;4.97;;;1.02;;
73699;SDS011;62005;50.082;8.988;2023-02-28T07:48:42;2.40;;;0.90;;
73699;SDS011;62005;50.082;8.988;2023-02-28T07:51:08;2.65;;;1.08;;
73699;SDS011;62005;50.082;8.988;2023-02-28T07:53:34;3.85;;;1.20;;
73699;SDS011;62005;50.082;8.988;2023-02-28T07:56:00;3.57;;;1.50;;
73699;SDS011;62005;50.082;8.988;2023-02-28T07:58:27;3.17;;;1.30;;
73699;SDS011;62005;50.082;8.988;2023-02-28T08:00:53;3.65;;;2.60;;
73699;SDS011;62005;50.082;8.988;2023-02-28T08:03:19;4.68;;;1.08;;
73699;SDS011;62005;50.082;8.988;2023-02-28T08:08:12;3.70;;;1.13;;
73699;SDS011;62005;50.082;8.988;2023-02-28T08:10:38;3.83;;;1.52;;
73699;SDS011;62005;50.082;8.988;2023-02-28T08:13:04;3.07;;;1.80;;
73699;SDS011;62005;50.082;8.988;2023-02-28T08:15:29;2.63;;;2.03;;
73699;SDS011;62005;50.082;8.988;2023-02-28T08:17:54;3.05;;;1.80;;
73699;SDS011;62005;50.082;8.988;2023-02-28T08:20:21;4.57;;;2.50;;
73699;SDS011;62005;50.082;8.988;2023-02-28T08:26:42;3.03;;;1.70;;
73699;SDS011;62005;50.082;8.988;2023-02-28T08:33:26;3.42;;;1.60;;
73699;SDS011;62005;50.082;8.988;2023-02-28T08:43:51;4.60;;;1.35;;
73699;SDS011;62005;50.082;8.988;2023-02-28T08:50:04;3.33;;;1.50;;
73699;SDS011;62005;50.082;8.988;2023-02-28T08:52:30;2.45;;;1.00;;
73699;SDS011;62005;50.082;8.988;2023-02-28T08:54:55;2.70;;;1.77;;
73699;SDS011;62005;50.082;8.988;2023-02-28T08:57:20;2.73;;;1.20;;
73699;SDS011;62005;50.082;8.988;2023-02-28T08:59:46;3.37;;;1.10;;
73699;SDS011;62005;50.082;8.988;2023-02-28T09:02:12;2.00;;;1.07;;
73699;SDS011;62005;50.082;8.988;2023-02-28T09:04:39;2.53;;;1.20;;
73699;SDS011;62005;50.082;8.988;2023-02-28T09:07:05;3.95;;;1.60;;
73699;SDS011;62005;50.082;8.988;2023-02-28T09:09:36;2.77;;;1.10;;
73699;SDS011;62005;50.082;8.988;2023-02-28T09:12:58;3.30;;;1.40;;
73699;SDS011;62005;50.082;8.988;2023-02-28T09:19:18;3.53;;;1.60;;
73699;SDS011;62005;50.082;8.988;2023-02-28T09:25:04;3.47;;;1.33;;
73699;SDS011;62005;50.082;8.988;2023-02-28T09:27:43;3.95;;;1.65;;
73699;SDS011;62005;50.082;8.988;2023-02-28T09:30:37;3.53;;;2.95;;
73699;SDS011;62005;50.082;8.988;2023-02-28T09:33:41;2.97;;;1.52;;
73699;SDS011;62005;50.082;8.988;2023-02-28T09:36:32;4.40;;;2.08;;
73699;SDS011;62005;50.082;8.988;2023-02-28T09:39:35;3.08;;;1.33;;
73699;SDS011;62005;50.082;8.988;2023-02-28T09:49:24;4.18;;;2.20;;
73699;SDS011;62005;50.082;8.988;2023-02-28T09:52:07;3.00;;;1.60;;
73699;SDS011;62005;50.082;8.988;2023-02-28T09:55:04;3.35;;;1.30;;
73699;SDS011;62005;50.082;8.988;2023-02-28T09:58:28;2.83;;;1.23;;
73699;SDS011;62005;50.082;8.988;2023-02-28T10:01:42;2.65;;;1.40;;
73699;SDS011;62005;50.082;8.988;2023-02-28T10:10:13;4.00;;;1.85;;
73699;SDS011;62005;50.082;8.988;2023-02-28T10:13:02;2.13;;;1.15;;
73699;SDS011;62005;50.082;8.988;2023-02-28T10:15:47;3.35;;;1.80;;
73699;SDS011;62005;50.082;8.988;2023-02-28T10:18:21;2.85;;;1.45;;
73699;SDS011;62005;50.082;8.988;2023-02-28T10:21:26;4.40;;;1.80;;
73699;SDS011;62005;50.082;8.988;2023-02-28T10:24:25;2.83;;;1.23;;
73699;SDS011;62005;50.082;8.988;2023-02-28T10:27:30;2.75;;;1.27;;
73699;SDS011;62005;50.082;8.988;2023-02-28T10:30:08;4.03;;;1.30;;
73699;SDS011;62005;50.082;8.988;2023-02-28T10:32:49;4.15;;;1.30;;
73699;SDS011;62005;50.082;8.988;2023-02-28T10:38:17;3.38;;;1.42;;
73699;SDS011;62005;50.082;8.988;2023-02-28T10:40:55;3.55;;;2.47;;
73699;SDS011;62005;50.082;8.988;2023-02-28T10:43:46;4.30;;;2.97;;
73699;SDS011;62005;50.082;8.988;2023-02-28T10:46:22;5.07;;;2.00;;
73699;SDS011;62005;50.082;8.988;2023-02-28T10:49:03;3.28;;;1.73;;
73699;SDS011;62005;50.082;8.988;2023-02-28T10:51:44;4.05;;;1.77;;
73699;SDS011;62005;50.082;8.988;2023-02-28T10:54:36;3.22;;;1.83;;
73699;SDS011;62005;50.082;8.988;2023-02-28T11:00:19;3.58;;;1.75;;
73699;SDS011;62005;50.082;8.988;2023-02-28T11:03:21;4.13;;;2.05;;
73699;SDS011;62005;50.082;8.988;2023-02-28T11:06:08;4.57;;;2.42;;
73699;SDS011;62005;50.082;8.988;2023-02-28T11:08:48;3.60;;;2.08;;
73699;SDS011;62005;50.082;8.988;2023-02-28T11:11:28;4.53;;;2.25;;
73699;SDS011;62005;50.082;8.988;2023-02-28T11:14:24;5.20;;;2.50;;
73699;SDS011;62005;50.082;8.988;2023-02-28T11:16:54;4.13;;;2.90;;
73699;SDS011;62005;50.082;8.988;2023-02-28T11:19:47;4.03;;;2.05;;
73699;SDS011;62005;50.082;8.988;2023-02-28T11:22:19;3.40;;;2.08;;
73699;SDS011;62005;50.082;8.988;2023-02-28T11:24:48;3.30;;;1.85;;
73699;SDS011;62005;50.082;8.988;2023-02-28T11:29:55;4.18;;;2.17;;
73699;SDS011;62005;50.082;8.988;2023-02-28T11:32:22;5.80;;;1.98;;
73699;SDS011;62005;50.082;8.988;2023-02-28T11:38:17;3.67;;;2.35;;
73699;SDS011;62005;50.082;8.988;2023-02-28T11:44:18;4.35;;;1.90;;
73699;SDS011;62005;50.082;8.988;2023-02-28T11:47:38;4.82;;;2.40;;
73699;SDS011;62005;50.082;8.988;2023-02-28T11:50:16;4.13;;;1.90;;
73699;SDS011;62005;50.082;8.988;2023-02-28T11:52:47;3.97;;;1.70;;
73699;SDS011;62005;50.082;8.988;2023-02-28T11:55:36;4.13;;;1.58;;
73699;SDS011;62005;50.082;8.988;2023-02-28T11:58:11;4.68;;;1.92;;
73699;SDS011;62005;50.082;8.988;2023-02-28T12:07:03;3.92;;;1.80;;
73699;SDS011;62005;50.082;8.988;2023-02-28T12:12:18;3.43;;;2.10;;
73699;SDS011;62005;50.082;8.988;2023-02-28T12:14:58;5.10;;;2.35;;
73699;SDS011;62005;50.082;8.988;2023-02-28T12:20:24;7.03;;;2.17;;
73699;SDS011;62005;50.082;8.988;2023-02-28T12:25:48;4.88;;;2.20;;
73699;SDS011;62005;50.082;8.988;2023-02-28T12:28:39;5.32;;;2.00;;
73699;SDS011;62005;50.082;8.988;2023-02-28T12:31:26;4.65;;;2.25;;
73699;SDS011;62005;50.082;8.988;2023-02-28T12:34:03;3.80;;;2.00;;
73699;SDS011;62005;50.082;8.988;2023-02-28T12:36:54;3.60;;;2.08;;
73699;SDS011;62005;50.082;8.988;2023-02-28T12:39:32;3.42;;;2.15;;
73699;SDS011;62005;50.082;8.988;2023-02-28T12:42:03;4.80;;;2.13;;
73699;SDS011;62005;50.082;8.988;2023-02-28T12:44:34;4.55;;;2.10;;
73699;SDS011;62005;50.082;8.988;2023-02-28T12:47:11;5.53;;;2.20;;
73699;SDS011;62005;50.082;8.988;2023-02-28T12:55:40;5.20;;;2.42;;
73699;SDS011;62005;50.082;8.988;2023-02-28T13:01:05;4.32;;;2.42;;
73699;SDS011;62005;50.082;8.988;2023-02-28T13:07:17;6.07;;;2.28;;
73699;SDS011;62005;50.082;8.988;2023-02-28T13:09:52;3.55;;;2.17;;
73699;SDS011;62005;50.082;8.988;2023-02-28T13:12:19;5.60;;;1.92;;
73699;SDS011;62005;50.082;8.988;2023-02-28T13:14:47;4.15;;;1.92;;
73699;SDS011;62005;50.082;8.988;2023-02-28T13:17:24;5.10;;;2.25;;
73699;SDS011;62005;50.082;8.988;2023-02-28T13:24:51;4.50;;;2.35;;
73699;SDS011;62005;50.082;8.988;2023-02-28T13:29:49;5.55;;;3.45;;
73699;SDS011;62005;50.082;8.988;2023-02-28T13:32:19;4.45;;;2.13;;
73699;SDS011;62005;50.082;8.988;2023-02-28T13:43:01;5.15;;;2.05;;
73699;SDS011;62005;50.082;8.988;2023-02-28T13:45:27;6.20;;;3.97;;
73699;SDS011;62005;50.082;8.988;2023-02-28T13:47:55;4.07;;;2.13;;
73699;SDS011;62005;50.082;8.988;2023-02-28T14:06:23;5.35;;;2.65;;
73699;SDS011;62005;50.082;8.988;2023-02-28T14:09:00;4.97;;;1.92;;
73699;SDS011;62005;50.082;8.988;2023-02-28T14:11:33;5.32;;;2.50;;
73699;SDS011;62005;50.082;8.988;2023-02-28T14:14:01;4.75;;;2.40;;
73699;SDS011;62005;50.082;8.988;2023-02-28T14:16:38;4.32;;;2.33;;
73699;SDS011;62005;50.082;8.988;2023-02-28T14:19:13;4.55;;;2.22;;
73699;SDS011;62005;50.082;8.988;2023-02-28T14:24:42;4.55;;;2.05;;
73699;SDS011;62005;50.082;8.988;2023-02-28T14:38:28;7.40;;;2.47;;
73699;SDS011;62005;50.082;8.988;2023-02-28T14:40:57;3.83;;;2.28;;
73699;SDS011;62005;50.082;8.988;2023-02-28T14:43:26;4.03;;;1.80;;
73699;SDS011;62005;50.082;8.988;2023-02-28T14:45:59;5.30;;;2.10;;
73699;SDS011;62005;50.082;8.988;2023-02-28T14:48:26;5.22;;;1.92;;
73699;SDS011;62005;50.082;8.988;2023-02-28T14:50:58;5.90;;;2.38;;
73699;SDS011;62005;50.082;8.988;2023-02-28T14:53:29;4.53;;;2.22;;
73699;SDS011;62005;50.082;8.988;2023-02-28T14:56:00;5.75;;;2.50;;
73699;SDS011;62005;50.082;8.988;2023-02-28T14:58:26;6.93;;;4.80;;
73699;SDS011;62005;50.082;8.988;2023-02-28T15:00:59;4.63;;;2.35;;
73699;SDS011;62005;50.082;8.988;2023-02-28T15:03:37;5.72;;;2.78;;
73699;SDS011;62005;50.082;8.988;2023-02-28T15:06:04;9.52;;;2.83;;
73699;SDS011;62005;50.082;8.988;2023-02-28T15:08:37;4.95;;;2.38;;
73699;SDS011;62005;50.082;8.988;2023-02-28T15:11:03;9.17;;;3.67;;
73699;SDS011;62005;50.082;8.988;2023-02-28T15:13:35;6.80;;;2.85;;
73699;SDS011;62005;50.082;8.988;2023-02-28T15:16:10;5.43;;;2.72;;
73699;SDS011;62005;50.082;8.988;2023-02-28T15:18:45;5.38;;;2.83;;
73699;SDS011;62005;50.082;8.988;2023-02-28T15:21:23;5.63;;;2.80;;
73699;SDS011;62005;50.082;8.988;2023-02-28T15:23:56;7.35;;;3.88;;
73699;SDS011;62005;50.082;8.988;2023-02-28T15:26:29;5.70;;;2.92;;
73699;SDS011;62005;50.082;8.988;2023-02-28T15:28:59;6.00;;;3.30;;
73699;SDS011;62005;50.082;8.988;2023-02-28T15:31:27;8.70;;;2.95;;
73699;SDS011;62005;50.082;8.988;2023-02-28T15:33:57;4.90;;;2.38;;
73699;SDS011;62005;50.082;8.988;2023-02-28T15:36:32;5.95;;;3.30;;
73699;SDS011;62005;50.082;8.988;2023-02-28T15:38:59;4.18;;;2.22;;
73699;SDS011;62005;50.082;8.988;2023-02-28T15:41:28;4.43;;;2.33;;
73699;SDS011;62005;50.082;8.988;2023-02-28T15:49:29;6.15;;;2.72;;
73699;SDS011;62005;50.082;8.988;2023-02-28T15:52:01;5.75;;;2.22;;
73699;SDS011;62005;50.082;8.988;2023-02-28T15:54:28;5.47;;;2.07;;
73699;SDS011;62005;50.082;8.988;2023-02-28T15:56:57;4.70;;;2.17;;
73699;SDS011;62005;50.082;8.988;2023-02-28T15:59:28;4.88;;;2.10;;
73699;SDS011;62005;50.082;8.988;2023-02-28T16:02:02;4.72;;;2.40;;
73699;SDS011;62005;50.082;8.988;2023-02-28T16:04:34;3.85;;;2.17;;
73699;SDS011;62005;50.082;8.988;2023-02-28T16:07:19;5.25;;;2.30;;
73699;SDS011;62005;50.082;8.988;2023-02-28T16:09:44;6.00;;;2.13;;
73699;SDS011;62005;50.082;8.988;2023-02-28T16:12:10;8.03;;;3.47;;
73699;SDS011;62005;50.082;8.988;2023-02-28T16:14:38;5.10;;;2.20;;
73699;SDS011;62005;50.082;8.988;2023-02-28T16:17:08;5.05;;;2.45;;
73699;SDS011;62005;50.082;8.988;2023-02-28T16:19:44;5.82;;;2.45;;
73699;SDS011;62005;50.082;8.988;2023-02-28T16:22:09;5.07;;;2.33;;
73699;SDS011;62005;50.082;8.988;2023-02-28T16:24:35;8.70;;;3.53;;
73699;SDS011;62005;50.082;8.988;2023-02-28T16:27:01;4.47;;;2.50;;
73699;SDS011;62005;50.082;8.988;2023-02-28T16:29:28;5.72;;;2.35;;
73699;SDS011;62005;50.082;8.988;2023-02-28T16:31:56;5.72;;;2.50;;
73699;SDS011;62005;50.082;8.988;2023-02-28T16:34:23;4.80;;;2.40;;
73699;SDS011;62005;50.082;8.988;2023-02-28T16:36:49;4.05;;;2.60;;
73699;SDS011;62005;50.082;8.988;2023-02-28T16:39:15;7.50;;;2.67;;
73699;SDS011;62005;50.082;8.988;2023-02-28T16:41:44;3.80;;;2.05;;
73699;SDS011;62005;50.082;8.988;2023-02-28T16:44:12;5.38;;;2.25;;
73699;SDS011;62005;50.082;8.988;2023-02-28T16:46:39;4.88;;;1.85;;
73699;SDS011;62005;50.082;8.988;2023-02-28T16:49:05;3.92;;;1.98;;
73699;SDS011;62005;50.082;8.988;2023-02-28T16:51:36;4.72;;;2.90;;
73699;SDS011;62005;50.082;8.988;2023-02-28T16:54:01;6.17;;;2.60;;
73699;SDS011;62005;50.082;8.988;2023-02-28T16:56:27;4.22;;;2.28;;
73699;SDS011;62005;50.082;8.988;2023-02-28T16:58:52;4.60;;;2.27;;
73699;SDS011;62005;50.082;8.988;2023-02-28T17:01:22;3.78;;;1.98;;
73699;SDS011;62005;50.082;8.988;2023-02-28T17:03:48;4.60;;;2.15;;
73699;SDS011;62005;50.082;8.988;2023-02-28T17:06:22;4.40;;;2.00;;
73699;SDS011;62005;50.082;8.988;2023-02-28T17:08:52;5.45;;;1.95;;
73699;SDS011;62005;50.082;8.988;2023-02-28T17:11:18;5.72;;;3.15;;
73699;SDS011;62005;50.082;8.988;2023-02-28T17:13:44;7.43;;;3.58;;
73699;SDS011;62005;50.082;8.988;2023-02-28T17:16:19;5.75;;;2.65;;
73699;SDS011;62005;50.082;8.988;2023-02-28T17:18:53;4.93;;;1.92;;
73699;SDS011;62005;50.082;8.988;2023-02-28T17:21:21;5.68;;;2.53;;
73699;SDS011;62005;50.082;8.988;2023-02-28T17:23:47;10.40;;;4.40;;
73699;SDS011;62005;50.082;8.988;2023-02-28T17:26:15;20.27;;;8.43;;
73699;SDS011;62005;50.082;8.988;2023-02-28T17:28:44;7.13;;;4.03;;
73699;SDS011;62005;50.082;8.988;2023-02-28T17:31:22;18.55;;;8.38;;
73699;SDS011;62005;50.082;8.988;2023-02-28T17:34:06;13.70;;;5.68;;
73699;SDS011;62005;50.082;8.988;2023-02-28T17:42:35;5.70;;;2.70;;
73699;SDS011;62005;50.082;8.988;2023-02-28T17:45:06;3.58;;;2.08;;
73699;SDS011;62005;50.082;8.988;2023-02-28T17:50:20;6.53;;;2.78;;
73699;SDS011;62005;50.082;8.988;2023-02-28T17:52:49;5.35;;;2.28;;
73699;SDS011;62005;50.082;8.988;2023-02-28T17:55:46;5.15;;;2.10;;
73699;SDS011;62005;50.082;8.988;2023-02-28T17:58:41;5.68;;;2.90;;
73699;SDS011;62005;50.082;8.988;2023-02-28T18:01:29;4.55;;;1.98;;
73699;SDS011;62005;50.082;8.988;2023-02-28T18:03:59;5.10;;;2.50;;
73699;SDS011;62005;50.082;8.988;2023-02-28T18:06:37;5.75;;;2.25;;
73699;SDS011;62005;50.082;8.988;2023-02-28T18:09:28;4.50;;;2.60;;
73699;SDS011;62005;50.082;8.988;2023-02-28T18:12:05;6.90;;;2.88;;
73699;SDS011;62005;50.082;8.988;2023-02-28T18:14:40;8.95;;;3.15;;
73699;SDS011;62005;50.082;8.988;2023-02-28T18:17:18;7.50;;;3.90;;
73699;SDS011;62005;50.082;8.988;2023-02-28T18:19:51;7.45;;;3.08;;
73699;SDS011;62005;50.082;8.988;2023-02-28T18:22:17;8.43;;;3.30;;
73699;SDS011;62005;50.082;8.988;2023-02-28T18:24:42;6.77;;;3.53;;
73699;SDS011;62005;50.082;8.988;2023-02-28T18:27:07;6.93;;;2.88;;
73699;SDS011;62005;50.082;8.988;2023-02-28T18:29:35;7.85;;;3.42;;
73699;SDS011;62005;50.082;8.988;2023-02-28T18:32:01;5.78;;;2.58;;
73699;SDS011;62005;50.082;8.988;2023-02-28T18:34:27;5.85;;;3.08;;
73699;SDS011;62005;50.082;8.988;2023-02-28T18:36:54;5.32;;;2.90;;
73699;SDS011;62005;50.082;8.988;2023-02-28T18:39:20;5.50;;;2.42;;
73699;SDS011;62005;50.082;8.988;2023-02-28T18:41:45;6.47;;;2.47;;
73699;SDS011;62005;50.082;8.988;2023-02-28T18:44:11;7.60;;;3.63;;
73699;SDS011;62005;50.082;8.988;2023-02-28T18:46:38;8.65;;;3.50;;
73699;SDS011;62005;50.082;8.988;2023-02-28T18:49:13;10.35;;;4.03;;
73699;SDS011;62005;50.082;8.988;2023-02-28T18:51:47;11.18;;;4.45;;